createdAt,value
2022-09-23T00:15:53.813Z,27.40
2022-09-23T00:18:24.439Z,27.40
2022-09-23T00:21:41.376Z,27.40
2022-09-23T00:25:20.658Z,27.40
2022-09-23T00:38:36.184Z,27.40
2022-09-23T00:44:47.778Z,27.40
2022-09-23T01:01:08.828Z,27.40
2022-09-23T01:03:39.936Z,27.40
2022-09-23T01:06:53.691Z,27.40
2022-09-23T01:09:48.185Z,27.40
2022-09-23T01:12:50.508Z,27.40
2022-09-23T01:15:45.628Z,27.40
2022-09-23T01:34:20.267Z,27.40
2022-09-23T01:37:14.310Z,27.40
2022-09-23T01:39:56.400Z,27.30
2022-09-23T01:43:12.140Z,27.30
2022-09-23T01:46:11.510Z,27.30
2022-09-23T01:48:52.089Z,27.30
2022-09-23T02:04:31.760Z,27.40
2022-09-23T02:07:26.457Z,27.40
2022-09-23T02:11:17.744Z,27.50
2022-09-23T02:14:07.160Z,27.50
2022-09-23T02:17:16.537Z,27.50
2022-09-23T02:27:16.708Z,27.70
2022-09-23T02:30:19.108Z,27.70
2022-09-23T02:33:05.653Z,27.70
2022-09-23T02:35:55.560Z,27.70
2022-09-23T02:38:58.824Z,27.70
2022-09-23T02:55:10.147Z,27.80
2022-09-23T02:58:20.819Z,27.80
2022-09-23T03:01:33.611Z,27.80
2022-09-23T03:27:39.002Z,27.80
2022-09-23T03:44:40.826Z,27.80
2022-09-23T03:48:00.487Z,27.80
2022-09-23T03:58:02.151Z,27.80
2022-09-23T04:00:52.830Z,27.80
2022-09-23T04:04:12.735Z,27.80
2022-09-23T04:06:43.851Z,27.80
2022-09-23T04:09:15.130Z,27.80
2022-09-23T04:12:08.017Z,27.80
2022-09-23T04:14:39.708Z,27.80
2022-09-23T04:27:07.316Z,27.80
2022-09-23T04:29:58.401Z,27.80
2022-09-23T04:32:49.309Z,27.80
2022-09-23T04:35:41.864Z,27.80
2022-09-23T04:53:31.264Z,27.80
2022-09-23T04:56:26.533Z,27.80
2022-09-23T05:09:02.262Z,27.80
2022-09-23T05:11:58.811Z,27.80
2022-09-23T05:14:32.835Z,27.80
2022-09-23T05:17:24.015Z,27.80
2022-09-23T05:20:15.801Z,27.90
2022-09-23T05:38:27.123Z,27.80
2022-09-23T05:41:22.143Z,27.80
2022-09-23T05:44:33.976Z,27.90
2022-09-23T05:57:08.170Z,27.90
2022-09-23T06:00:01.805Z,27.90
2022-09-23T06:03:00.434Z,27.90
2022-09-23T06:05:32.736Z,27.90
2022-09-23T06:09:08.869Z,27.90
2022-09-23T06:22:01.220Z,27.90
2022-09-23T06:25:13.370Z,28.00
2022-09-23T06:37:51.440Z,27.90
2022-09-23T06:40:42.597Z,27.90
2022-09-23T06:43:13.928Z,27.90
2022-09-23T06:46:30.018Z,27.90
2022-09-23T06:59:18.154Z,27.90
2022-09-23T07:02:09.709Z,27.90
2022-09-23T07:04:45.887Z,27.90
2022-09-23T07:08:01.064Z,27.90
2022-09-23T07:11:28.332Z,27.90
2022-09-23T07:14:00.046Z,27.90
2022-09-23T07:28:31.395Z,27.90
2022-09-23T07:31:48.844Z,27.90
2022-09-23T07:34:20.004Z,27.90
2022-09-23T07:36:51.764Z,28.00
2022-09-23T07:40:05.642Z,28.00
2022-09-23T07:42:36.904Z,27.90
2022-09-23T07:58:11.754Z,27.90
2022-09-23T08:01:30.489Z,27.90
2022-09-23T08:16:13.737Z,27.90
2022-09-23T08:19:22.999Z,28.00
2022-09-23T08:22:35.437Z,28.00
2022-09-23T08:41:10.222Z,27.90
2022-09-23T08:44:34.571Z,27.90
2022-09-23T08:48:03.188Z,28.00
2022-09-23T08:51:10.853Z,28.00
2022-09-23T08:54:05.094Z,28.00
2022-09-23T08:56:59.324Z,28.00
2022-09-23T09:12:45.094Z,28.00
2022-09-23T09:16:07.763Z,28.00
2022-09-23T09:19:02.675Z,28.00
2022-09-23T09:22:04.069Z,28.00
2022-09-23T09:24:38.120Z,28.00
2022-09-23T09:37:07.692Z,27.90
2022-09-23T09:40:04.993Z,28.00
2022-09-23T09:43:25.019Z,28.00
2022-09-23T09:47:14.735Z,28.00
2022-09-23T10:02:52.226Z,28.00
2022-09-23T10:06:12.438Z,28.00
2022-09-23T10:09:02.945Z,28.00
2022-09-23T10:12:05.924Z,28.00
2022-09-23T10:22:31.517Z,28.10
2022-09-23T10:25:27.025Z,28.10
2022-09-23T10:28:42.415Z,28.10
2022-09-23T10:32:18.170Z,28.10
2022-09-23T10:38:05.507Z,28.10
2022-09-23T11:03:20.406Z,28.00
2022-09-23T11:06:12.806Z,28.00
2022-09-23T11:09:05.325Z,28.00
2022-09-23T11:11:51.481Z,27.90
2022-09-23T11:14:54.277Z,27.90
2022-09-23T11:18:15.161Z,27.90
2022-09-23T11:21:29.378Z,28.00
2022-09-23T11:41:39.717Z,27.80
2022-09-23T11:45:16.957Z,27.80
2022-09-23T11:48:28.308Z,27.80
2022-09-23T11:51:28.631Z,27.80
2022-09-23T11:54:44.583Z,27.80
2022-09-23T12:09:58.283Z,27.80
2022-09-23T12:13:00.897Z,27.80
2022-09-23T12:16:03.920Z,27.80
2022-09-23T12:19:28.524Z,27.70
2022-09-23T12:22:55.274Z,27.70
2022-09-23T12:25:48.564Z,27.80
2022-09-23T12:41:30.392Z,27.70
2022-09-23T12:44:22.630Z,27.70
2022-09-23T12:47:30.156Z,27.70
2022-09-23T12:51:09.872Z,27.70
2022-09-23T12:54:18.772Z,27.70
2022-09-23T12:56:59.034Z,27.70
2022-09-23T13:00:14.830Z,27.70
2022-09-23T13:10:41.883Z,27.70
2022-09-23T13:13:57.211Z,27.60
2022-09-23T13:16:32.220Z,27.70
2022-09-23T13:19:42.819Z,27.60
2022-09-23T13:23:07.478Z,27.60
2022-09-23T13:26:26.126Z,27.60
2022-09-23T13:29:30.063Z,27.60
2022-09-23T13:39:24.387Z,27.60
2022-09-23T13:42:50.701Z,27.60
2022-09-23T13:45:25.249Z,27.60
2022-09-23T13:48:18.170Z,27.60
2022-09-23T14:04:49.993Z,27.60
2022-09-23T14:07:35.613Z,27.50
2022-09-23T14:10:50.330Z,27.60
2022-09-23T14:23:33.982Z,27.50
2022-09-23T14:26:48.721Z,27.50
2022-09-23T14:45:14.091Z,27.40
2022-09-23T14:48:12.442Z,27.40
2022-09-23T14:51:16.950Z,27.40
2022-09-23T15:04:21.598Z,27.40
2022-09-23T15:07:06.080Z,27.40
2022-09-23T15:10:03.565Z,27.40
2022-09-23T15:13:28.322Z,27.40
2022-09-23T15:16:50.911Z,27.40
2022-09-23T15:19:24.208Z,27.40
2022-09-23T15:22:19.081Z,27.40
2022-09-23T15:37:37.479Z,27.30
2022-09-23T15:40:48.976Z,27.30
2022-09-23T15:51:12.762Z,27.30
2022-09-23T15:54:58.952Z,27.30
2022-09-23T16:11:14.707Z,27.30
2022-09-23T16:14:05.996Z,27.30
2022-09-23T16:17:01.309Z,27.30
2022-09-23T16:19:36.684Z,27.20
2022-09-23T16:22:52.516Z,27.20
2022-09-23T16:35:48.442Z,27.20
2022-09-23T16:38:40.157Z,27.20
2022-09-23T16:41:37.253Z,27.20
2022-09-23T16:44:11.854Z,27.20
2022-09-23T16:47:04.364Z,27.20
2022-09-23T16:49:55.515Z,27.20
2022-09-23T16:52:48.584Z,27.10
2022-09-23T17:06:08.069Z,27.20
2022-09-23T17:08:39.460Z,27.10
2022-09-23T17:11:36.542Z,27.10
2022-09-23T17:14:41.181Z,27.10
2022-09-23T17:17:12.273Z,27.10
2022-09-23T17:19:43.464Z,27.10
2022-09-23T17:30:09.824Z,27.20
2022-09-23T17:33:06.743Z,27.20
2022-09-23T17:36:56.421Z,27.20
2022-09-23T17:39:51.486Z,27.10
2022-09-23T17:42:49.273Z,27.10
2022-09-23T17:52:40.628Z,27.20
2022-09-23T17:56:01.593Z,27.10
2022-09-23T17:58:54.180Z,27.10
2022-09-23T18:01:46.222Z,27.00
2022-09-23T18:14:30.183Z,27.10
2022-09-23T18:17:26.790Z,27.10
2022-09-23T18:20:21.647Z,27.10
2022-09-23T18:23:12.493Z,27.10
2022-09-23T18:26:09.982Z,27.00
2022-09-23T18:38:51.573Z,27.20
2022-09-23T18:42:27.236Z,27.10
2022-09-23T18:56:04.371Z,27.00
2022-09-23T18:59:01.933Z,27.00
2022-09-23T19:01:33.077Z,27.00
2022-09-23T19:04:24.590Z,27.10
2022-09-23T19:17:56.109Z,27.00
2022-09-23T19:21:20.107Z,27.10
2022-09-23T19:23:55.576Z,27.10
2022-09-23T19:26:33.416Z,27.00
2022-09-23T19:39:57.970Z,27.00
2022-09-23T19:42:48.934Z,27.10
2022-09-23T19:45:40.549Z,27.10
2022-09-23T20:00:54.197Z,27.10
2022-09-23T20:03:52.018Z,27.10
2022-09-23T20:06:43.041Z,27.00
2022-09-23T20:09:35.698Z,27.00
2022-09-23T20:12:07.977Z,27.10
2022-09-23T20:14:42.857Z,27.00
2022-09-23T20:27:00.178Z,27.00
2022-09-23T20:30:16.900Z,27.00
2022-09-23T20:34:14.570Z,27.00
2022-09-23T20:37:28.887Z,27.00
2022-09-23T20:49:35.297Z,27.00
2022-09-23T20:52:30.035Z,27.00
2022-09-23T20:55:21.234Z,27.00
2022-09-23T20:58:12.501Z,27.00
2022-09-23T21:00:45.693Z,27.00
2022-09-23T21:06:21.622Z,27.00
2022-09-23T21:08:57.002Z,27.00
2022-09-23T21:11:28.833Z,27.00
2022-09-23T22:06:16.373Z,27.00
2022-09-23T22:08:47.716Z,27.00
2022-09-23T22:11:39.657Z,27.00
2022-09-23T22:14:32.002Z,26.90
2022-09-23T22:17:24.228Z,27.00
2022-09-23T22:20:18.256Z,27.00
2022-09-23T22:23:21.998Z,27.00
2022-09-23T23:50:27.274Z,26.90
2022-09-23T23:53:20.738Z,26.90
2022-09-23T23:55:51.957Z,26.90
2022-09-23T23:58:22.735Z,26.90
